EBLG/LGG METAR and TAF weather

Enter ICAO airport designator
Station Type Date Time Source
EBLG METAR 2021/04/13 06:50 UTC NOAA

EBLG 130650Z VRB02KT 9999 FEW030 01/M02 Q1033 NOSIG


Station Type Date Time Source
EBLG Decoded METAR 2021/04/13 06:50 UTC NOAA

Bierset, Belgium (EBLG) 50-39N 005-27E 178M
Apr 13, 2021 - 02:50 AM EDT / 2021.04.13 0650 UTC
Wind: Variable at 2 MPH (2 KT):0
Visibility: greater than 7 mile(s):0
Sky conditions: mostly clear
Temperature: 33 F (1 C)
Dew Point: 28 F (-2 C)
Relative Humidity: 80%
Pressure (altimeter): 30.50 in. Hg (1033 hPa)
ob: EBLG 130650Z VRB02KT 9999 FEW030 01/M02 Q1033 NOSIG
cycle: 7

Station Type Date Time Source
EBLG TAF 2021/04/13 06:45 UTC NOAA

TAF EBLG 130500Z 1306/1412 30005KT 5000 BR FEW025
BECMG 1306/1308 9999 NSW

Example: see airport list